sensor_id;sensor_type;location;lat;lon;timestamp;P1;durP1;ratioP1;P2;durP2;ratioP2
76373;SDS011;65197;50.164;8.012;2023-05-23T00:01:40;44.50;;;29.63;;
76373;SDS011;65197;50.164;8.012;2023-05-23T00:04:07;52.03;;;32.60;;
76373;SDS011;65197;50.164;8.012;2023-05-23T00:06:33;50.10;;;32.60;;
76373;SDS011;65197;50.164;8.012;2023-05-23T00:09:00;52.15;;;33.95;;
76373;SDS011;65197;50.164;8.012;2023-05-23T00:11:25;51.00;;;33.58;;
76373;SDS011;65197;50.164;8.012;2023-05-23T00:13:52;51.67;;;33.22;;
76373;SDS011;65197;50.164;8.012;2023-05-23T00:16:19;51.15;;;32.97;;
76373;SDS011;65197;50.164;8.012;2023-05-23T00:18:45;48.40;;;31.88;;
76373;SDS011;65197;50.164;8.012;2023-05-23T00:21:10;50.78;;;32.33;;
76373;SDS011;65197;50.164;8.012;2023-05-23T00:23:37;46.22;;;31.20;;
76373;SDS011;65197;50.164;8.012;2023-05-23T00:28:31;45.78;;;29.52;;
76373;SDS011;65197;50.164;8.012;2023-05-23T00:30:57;45.05;;;30.00;;
76373;SDS011;65197;50.164;8.012;2023-05-23T00:33:22;44.33;;;29.52;;
76373;SDS011;65197;50.164;8.012;2023-05-23T00:35:48;41.72;;;28.80;;
76373;SDS011;65197;50.164;8.012;2023-05-23T00:38:13;42.38;;;29.02;;
76373;SDS011;65197;50.164;8.012;2023-05-23T00:40:38;45.45;;;29.10;;
76373;SDS011;65197;50.164;8.012;2023-05-23T00:43:04;44.92;;;29.80;;
76373;SDS011;65197;50.164;8.012;2023-05-23T00:45:32;40.28;;;26.75;;
76373;SDS011;65197;50.164;8.012;2023-05-23T00:47:57;41.20;;;27.67;;
76373;SDS011;65197;50.164;8.012;2023-05-23T00:50:24;42.25;;;26.80;;
76373;SDS011;65197;50.164;8.012;2023-05-23T00:52:53;42.03;;;27.75;;
76373;SDS011;65197;50.164;8.012;2023-05-23T00:55:19;41.58;;;27.02;;
76373;SDS011;65197;50.164;8.012;2023-05-23T00:57:44;38.72;;;26.77;;
76373;SDS011;65197;50.164;8.012;2023-05-23T01:00:13;39.72;;;25.70;;
76373;SDS011;65197;50.164;8.012;2023-05-23T01:02:43;39.97;;;26.77;;
76373;SDS011;65197;50.164;8.012;2023-05-23T01:05:10;37.75;;;24.80;;
76373;SDS011;65197;50.164;8.012;2023-05-23T01:07:39;39.72;;;26.48;;
76373;SDS011;65197;50.164;8.012;2023-05-23T01:10:05;37.45;;;25.88;;
76373;SDS011;65197;50.164;8.012;2023-05-23T01:18:27;34.03;;;21.77;;
76373;SDS011;65197;50.164;8.012;2023-05-23T01:21:09;32.08;;;20.63;;
76373;SDS011;65197;50.164;8.012;2023-05-23T01:23:54;33.40;;;20.27;;
76373;SDS011;65197;50.164;8.012;2023-05-23T01:29:23;32.67;;;20.98;;
76373;SDS011;65197;50.164;8.012;2023-05-23T01:31:52;31.92;;;20.90;;
76373;SDS011;65197;50.164;8.012;2023-05-23T01:34:22;31.20;;;20.50;;
76373;SDS011;65197;50.164;8.012;2023-05-23T01:36:56;31.52;;;20.50;;
76373;SDS011;65197;50.164;8.012;2023-05-23T01:39:22;32.85;;;20.55;;
76373;SDS011;65197;50.164;8.012;2023-05-23T01:41:48;35.88;;;24.00;;
76373;SDS011;65197;50.164;8.012;2023-05-23T01:44:15;36.30;;;22.75;;
76373;SDS011;65197;50.164;8.012;2023-05-23T01:46:41;39.28;;;22.67;;
76373;SDS011;65197;50.164;8.012;2023-05-23T01:49:09;37.28;;;23.35;;
76373;SDS011;65197;50.164;8.012;2023-05-23T01:51:37;39.70;;;22.88;;
76373;SDS011;65197;50.164;8.012;2023-05-23T01:54:03;40.20;;;24.73;;
76373;SDS011;65197;50.164;8.012;2023-05-23T01:56:29;40.47;;;23.63;;
76373;SDS011;65197;50.164;8.012;2023-05-23T01:58:54;39.05;;;23.63;;
76373;SDS011;65197;50.164;8.012;2023-05-23T02:01:20;38.47;;;23.77;;
76373;SDS011;65197;50.164;8.012;2023-05-23T02:03:46;41.15;;;25.50;;
76373;SDS011;65197;50.164;8.012;2023-05-23T02:06:11;38.13;;;24.05;;
76373;SDS011;65197;50.164;8.012;2023-05-23T02:08:37;39.05;;;24.23;;
76373;SDS011;65197;50.164;8.012;2023-05-23T02:11:02;41.75;;;23.27;;
76373;SDS011;65197;50.164;8.012;2023-05-23T02:13:28;39.72;;;26.02;;
76373;SDS011;65197;50.164;8.012;2023-05-23T02:15:53;35.88;;;23.92;;
76373;SDS011;65197;50.164;8.012;2023-05-23T02:18:19;43.75;;;25.15;;
76373;SDS011;65197;50.164;8.012;2023-05-23T02:20:45;34.63;;;21.27;;
76373;SDS011;65197;50.164;8.012;2023-05-23T02:23:10;33.55;;;20.67;;
76373;SDS011;65197;50.164;8.012;2023-05-23T02:25:36;33.30;;;21.25;;
76373;SDS011;65197;50.164;8.012;2023-05-23T02:28:01;34.00;;;21.25;;
76373;SDS011;65197;50.164;8.012;2023-05-23T02:30:27;31.05;;;19.45;;
76373;SDS011;65197;50.164;8.012;2023-05-23T02:32:52;35.25;;;21.55;;
76373;SDS011;65197;50.164;8.012;2023-05-23T02:35:18;32.35;;;20.80;;
76373;SDS011;65197;50.164;8.012;2023-05-23T02:37:44;33.75;;;20.90;;
76373;SDS011;65197;50.164;8.012;2023-05-23T02:40:09;40.85;;;23.38;;
76373;SDS011;65197;50.164;8.012;2023-05-23T02:42:35;44.80;;;25.38;;
76373;SDS011;65197;50.164;8.012;2023-05-23T02:45:00;53.88;;;28.95;;
76373;SDS011;65197;50.164;8.012;2023-05-23T02:47:26;53.15;;;27.52;;
76373;SDS011;65197;50.164;8.012;2023-05-23T02:49:51;47.10;;;26.38;;
76373;SDS011;65197;50.164;8.012;2023-05-23T02:52:16;46.88;;;26.13;;
76373;SDS011;65197;50.164;8.012;2023-05-23T02:54:42;43.80;;;25.50;;
76373;SDS011;65197;50.164;8.012;2023-05-23T02:57:07;45.90;;;26.40;;
76373;SDS011;65197;50.164;8.012;2023-05-23T02:59:32;45.72;;;26.63;;
76373;SDS011;65197;50.164;8.012;2023-05-23T03:01:58;46.38;;;25.38;;
76373;SDS011;65197;50.164;8.012;2023-05-23T03:04:23;48.20;;;25.10;;
76373;SDS011;65197;50.164;8.012;2023-05-23T03:06:49;44.67;;;25.17;;
76373;SDS011;65197;50.164;8.012;2023-05-23T03:09:18;46.85;;;26.17;;
76373;SDS011;65197;50.164;8.012;2023-05-23T03:11:43;44.00;;;24.80;;
76373;SDS011;65197;50.164;8.012;2023-05-23T03:14:08;42.22;;;24.67;;
76373;SDS011;65197;50.164;8.012;2023-05-23T03:16:34;39.38;;;23.48;;
76373;SDS011;65197;50.164;8.012;2023-05-23T03:18:59;39.72;;;23.40;;
76373;SDS011;65197;50.164;8.012;2023-05-23T03:21:25;41.38;;;22.63;;
76373;SDS011;65197;50.164;8.012;2023-05-23T03:23:50;35.75;;;22.38;;
76373;SDS011;65197;50.164;8.012;2023-05-23T03:26:15;34.90;;;23.00;;
76373;SDS011;65197;50.164;8.012;2023-05-23T03:28:41;35.42;;;21.08;;
76373;SDS011;65197;50.164;8.012;2023-05-23T03:31:06;35.95;;;22.35;;
76373;SDS011;65197;50.164;8.012;2023-05-23T03:33:32;37.55;;;20.73;;
76373;SDS011;65197;50.164;8.012;2023-05-23T03:35:57;36.67;;;21.98;;
76373;SDS011;65197;50.164;8.012;2023-05-23T03:38:22;36.90;;;22.67;;
76373;SDS011;65197;50.164;8.012;2023-05-23T03:40:48;32.30;;;21.05;;
76373;SDS011;65197;50.164;8.012;2023-05-23T03:43:13;27.60;;;16.77;;
76373;SDS011;65197;50.164;8.012;2023-05-23T03:45:39;23.70;;;15.48;;
76373;SDS011;65197;50.164;8.012;2023-05-23T03:48:04;22.92;;;15.32;;
76373;SDS011;65197;50.164;8.012;2023-05-23T03:50:30;22.15;;;14.70;;
76373;SDS011;65197;50.164;8.012;2023-05-23T03:52:55;18.42;;;12.30;;
76373;SDS011;65197;50.164;8.012;2023-05-23T03:55:20;18.10;;;12.38;;
76373;SDS011;65197;50.164;8.012;2023-05-23T03:57:52;18.83;;;13.02;;
76373;SDS011;65197;50.164;8.012;2023-05-23T04:00:18;21.02;;;12.35;;
76373;SDS011;65197;50.164;8.012;2023-05-23T04:02:44;17.33;;;11.68;;
76373;SDS011;65197;50.164;8.012;2023-05-23T04:05:10;17.45;;;11.70;;
76373;SDS011;65197;50.164;8.012;2023-05-23T04:07:36;16.25;;;11.05;;
76373;SDS011;65197;50.164;8.012;2023-05-23T04:10:02;15.25;;;10.52;;
76373;SDS011;65197;50.164;8.012;2023-05-23T04:12:28;18.02;;;11.85;;
76373;SDS011;65197;50.164;8.012;2023-05-23T04:14:57;17.60;;;11.52;;
76373;SDS011;65197;50.164;8.012;2023-05-23T04:17:23;17.40;;;11.52;;
76373;SDS011;65197;50.164;8.012;2023-05-23T04:19:49;15.57;;;10.85;;
76373;SDS011;65197;50.164;8.012;2023-05-23T04:22:15;17.90;;;11.82;;
76373;SDS011;65197;50.164;8.012;2023-05-23T04:24:41;16.65;;;11.13;;
76373;SDS011;65197;50.164;8.012;2023-05-23T04:27:06;16.58;;;11.43;;
76373;SDS011;65197;50.164;8.012;2023-05-23T04:29:33;18.55;;;11.95;;
76373;SDS011;65197;50.164;8.012;2023-05-23T04:31:59;17.92;;;12.82;;
76373;SDS011;65197;50.164;8.012;2023-05-23T04:34:27;20.35;;;13.23;;
76373;SDS011;65197;50.164;8.012;2023-05-23T04:36:54;17.17;;;12.02;;
76373;SDS011;65197;50.164;8.012;2023-05-23T04:39:19;18.40;;;11.70;;
76373;SDS011;65197;50.164;8.012;2023-05-23T04:41:45;18.17;;;11.88;;
76373;SDS011;65197;50.164;8.012;2023-05-23T04:44:11;19.98;;;11.85;;
76373;SDS011;65197;50.164;8.012;2023-05-23T04:46:38;18.25;;;12.93;;
76373;SDS011;65197;50.164;8.012;2023-05-23T04:49:07;17.63;;;10.98;;
76373;SDS011;65197;50.164;8.012;2023-05-23T04:51:33;16.52;;;11.43;;
76373;SDS011;65197;50.164;8.012;2023-05-23T04:53:59;18.83;;;10.80;;
76373;SDS011;65197;50.164;8.012;2023-05-23T04:56:24;15.07;;;10.35;;
76373;SDS011;65197;50.164;8.012;2023-05-23T04:58:52;15.05;;;10.75;;
76373;SDS011;65197;50.164;8.012;2023-05-23T05:01:17;15.82;;;10.15;;
76373;SDS011;65197;50.164;8.012;2023-05-23T05:03:43;15.98;;;11.90;;
76373;SDS011;65197;50.164;8.012;2023-05-23T05:06:08;17.70;;;12.25;;
76373;SDS011;65197;50.164;8.012;2023-05-23T05:08:33;21.83;;;13.80;;
76373;SDS011;65197;50.164;8.012;2023-05-23T05:11:00;17.38;;;12.10;;
76373;SDS011;65197;50.164;8.012;2023-05-23T05:13:25;22.00;;;13.93;;
76373;SDS011;65197;50.164;8.012;2023-05-23T05:15:50;20.45;;;13.93;;
76373;SDS011;65197;50.164;8.012;2023-05-23T05:18:16;18.27;;;13.13;;
76373;SDS011;65197;50.164;8.012;2023-05-23T05:20:42;19.27;;;13.50;;
76373;SDS011;65197;50.164;8.012;2023-05-23T05:23:07;19.42;;;13.40;;
76373;SDS011;65197;50.164;8.012;2023-05-23T05:25:33;18.48;;;13.00;;
76373;SDS011;65197;50.164;8.012;2023-05-23T05:28:00;20.00;;;13.75;;
76373;SDS011;65197;50.164;8.012;2023-05-23T05:30:30;19.50;;;13.73;;
76373;SDS011;65197;50.164;8.012;2023-05-23T05:32:59;17.33;;;12.23;;
76373;SDS011;65197;50.164;8.012;2023-05-23T05:35:26;20.23;;;13.30;;
76373;SDS011;65197;50.164;8.012;2023-05-23T05:37:51;17.13;;;12.35;;
76373;SDS011;65197;50.164;8.012;2023-05-23T05:40:16;18.92;;;12.75;;
76373;SDS011;65197;50.164;8.012;2023-05-23T05:42:42;16.83;;;12.32;;
76373;SDS011;65197;50.164;8.012;2023-05-23T05:45:07;16.88;;;12.63;;
76373;SDS011;65197;50.164;8.012;2023-05-23T05:47:33;17.23;;;11.75;;
76373;SDS011;65197;50.164;8.012;2023-05-23T05:49:58;18.67;;;11.73;;
76373;SDS011;65197;50.164;8.012;2023-05-23T05:52:23;15.80;;;11.65;;
76373;SDS011;65197;50.164;8.012;2023-05-23T05:54:50;17.20;;;11.45;;
76373;SDS011;65197;50.164;8.012;2023-05-23T05:57:15;15.00;;;11.52;;
76373;SDS011;65197;50.164;8.012;2023-05-23T05:59:40;14.55;;;10.95;;
76373;SDS011;65197;50.164;8.012;2023-05-23T06:02:06;16.50;;;11.27;;
76373;SDS011;65197;50.164;8.012;2023-05-23T06:04:32;14.15;;;11.82;;
76373;SDS011;65197;50.164;8.012;2023-05-23T06:06:57;14.68;;;10.63;;
76373;SDS011;65197;50.164;8.012;2023-05-23T06:09:22;14.45;;;11.05;;
76373;SDS011;65197;50.164;8.012;2023-05-23T06:11:48;14.43;;;10.77;;
76373;SDS011;65197;50.164;8.012;2023-05-23T06:14:13;15.45;;;11.48;;
76373;SDS011;65197;50.164;8.012;2023-05-23T06:16:39;15.88;;;11.52;;
76373;SDS011;65197;50.164;8.012;2023-05-23T06:19:04;16.30;;;11.50;;
76373;SDS011;65197;50.164;8.012;2023-05-23T06:21:30;14.63;;;11.40;;
76373;SDS011;65197;50.164;8.012;2023-05-23T06:23:55;16.23;;;10.98;;
76373;SDS011;65197;50.164;8.012;2023-05-23T06:26:20;15.90;;;9.68;;
76373;SDS011;65197;50.164;8.012;2023-05-23T06:28:46;15.68;;;10.50;;
76373;SDS011;65197;50.164;8.012;2023-05-23T06:31:11;14.65;;;10.38;;
76373;SDS011;65197;50.164;8.012;2023-05-23T06:33:36;15.43;;;10.65;;
76373;SDS011;65197;50.164;8.012;2023-05-23T06:36:02;13.98;;;10.20;;
76373;SDS011;65197;50.164;8.012;2023-05-23T06:38:28;14.60;;;10.30;;
76373;SDS011;65197;50.164;8.012;2023-05-23T06:40:57;13.23;;;10.55;;
76373;SDS011;65197;50.164;8.012;2023-05-23T06:43:23;17.90;;;12.02;;
76373;SDS011;65197;50.164;8.012;2023-05-23T06:45:48;16.35;;;11.40;;
76373;SDS011;65197;50.164;8.012;2023-05-23T06:48:14;16.40;;;11.65;;
76373;SDS011;65197;50.164;8.012;2023-05-23T06:50:39;14.13;;;10.50;;
76373;SDS011;65197;50.164;8.012;2023-05-23T06:53:05;12.48;;;9.18;;
76373;SDS011;65197;50.164;8.012;2023-05-23T06:55:31;13.93;;;10.10;;
76373;SDS011;65197;50.164;8.012;2023-05-23T06:57:57;11.48;;;8.85;;
76373;SDS011;65197;50.164;8.012;2023-05-23T07:00:24;10.38;;;7.63;;
76373;SDS011;65197;50.164;8.012;2023-05-23T07:02:49;11.00;;;8.20;;
76373;SDS011;65197;50.164;8.012;2023-05-23T07:05:15;9.95;;;7.75;;
76373;SDS011;65197;50.164;8.012;2023-05-23T07:07:41;10.80;;;7.50;;
76373;SDS011;65197;50.164;8.012;2023-05-23T07:10:07;12.48;;;8.30;;
76373;SDS011;65197;50.164;8.012;2023-05-23T07:12:33;10.95;;;7.65;;
76373;SDS011;65197;50.164;8.012;2023-05-23T07:14:58;11.82;;;8.57;;
76373;SDS011;65197;50.164;8.012;2023-05-23T07:17:23;13.25;;;8.98;;
76373;SDS011;65197;50.164;8.012;2023-05-23T07:19:49;11.73;;;8.55;;
76373;SDS011;65197;50.164;8.012;2023-05-23T07:22:15;12.95;;;9.63;;
76373;SDS011;65197;50.164;8.012;2023-05-23T07:24:40;12.25;;;9.60;;
76373;SDS011;65197;50.164;8.012;2023-05-23T07:27:05;13.55;;;10.30;;
76373;SDS011;65197;50.164;8.012;2023-05-23T07:29:31;12.82;;;10.25;;
76373;SDS011;65197;50.164;8.012;2023-05-23T07:31:57;14.60;;;10.57;;
76373;SDS011;65197;50.164;8.012;2023-05-23T07:34:23;15.77;;;10.43;;
76373;SDS011;65197;50.164;8.012;2023-05-23T07:36:48;15.10;;;9.88;;
76373;SDS011;65197;50.164;8.012;2023-05-23T07:39:14;16.00;;;10.85;;
76373;SDS011;65197;50.164;8.012;2023-05-23T07:41:45;13.60;;;10.43;;
76373;SDS011;65197;50.164;8.012;2023-05-23T07:44:11;14.43;;;10.43;;
76373;SDS011;65197;50.164;8.012;2023-05-23T07:46:36;14.93;;;10.48;;
76373;SDS011;65197;50.164;8.012;2023-05-23T07:49:01;13.35;;;9.73;;
76373;SDS011;65197;50.164;8.012;2023-05-23T07:51:27;14.60;;;10.07;;
76373;SDS011;65197;50.164;8.012;2023-05-23T07:53:52;11.82;;;9.52;;
76373;SDS011;65197;50.164;8.012;2023-05-23T07:56:18;13.13;;;9.75;;
76373;SDS011;65197;50.164;8.012;2023-05-23T07:58:43;12.73;;;9.48;;
76373;SDS011;65197;50.164;8.012;2023-05-23T08:01:08;12.07;;;9.93;;
76373;SDS011;65197;50.164;8.012;2023-05-23T08:03:34;12.98;;;9.50;;
76373;SDS011;65197;50.164;8.012;2023-05-23T08:05:59;12.30;;;9.68;;
76373;SDS011;65197;50.164;8.012;2023-05-23T08:08:25;11.85;;;8.55;;
76373;SDS011;65197;50.164;8.012;2023-05-23T08:10:50;11.45;;;8.93;;
76373;SDS011;65197;50.164;8.012;2023-05-23T08:13:15;11.80;;;8.70;;
76373;SDS011;65197;50.164;8.012;2023-05-23T08:15:42;11.05;;;8.70;;
76373;SDS011;65197;50.164;8.012;2023-05-23T08:18:07;10.98;;;8.98;;
76373;SDS011;65197;50.164;8.012;2023-05-23T08:20:33;11.77;;;9.02;;
76373;SDS011;65197;50.164;8.012;2023-05-23T08:22:58;15.93;;;9.32;;
76373;SDS011;65197;50.164;8.012;2023-05-23T08:25:24;9.68;;;7.70;;
76373;SDS011;65197;50.164;8.012;2023-05-23T08:27:54;9.13;;;8.15;;
76373;SDS011;65197;50.164;8.012;2023-05-23T08:30:20;9.13;;;7.80;;
76373;SDS011;65197;50.164;8.012;2023-05-23T08:32:47;10.60;;;7.82;;
76373;SDS011;65197;50.164;8.012;2023-05-23T08:35:12;10.82;;;8.77;;
76373;SDS011;65197;50.164;8.012;2023-05-23T08:37:47;23.38;;;10.55;;
76373;SDS011;65197;50.164;8.012;2023-05-23T08:40:17;9.35;;;8.13;;
76373;SDS011;65197;50.164;8.012;2023-05-23T08:42:45;10.18;;;7.63;;
76373;SDS011;65197;50.164;8.012;2023-05-23T08:45:14;11.77;;;8.32;;
76373;SDS011;65197;50.164;8.012;2023-05-23T08:47:41;12.40;;;8.88;;
76373;SDS011;65197;50.164;8.012;2023-05-23T08:50:11;15.13;;;8.60;;
76373;SDS011;65197;50.164;8.012;2023-05-23T08:52:42;11.82;;;8.38;;
76373;SDS011;65197;50.164;8.012;2023-05-23T08:55:11;13.70;;;10.40;;
76373;SDS011;65197;50.164;8.012;2023-05-23T08:57:37;15.05;;;9.23;;
76373;SDS011;65197;50.164;8.012;2023-05-23T09:00:07;14.38;;;10.55;;
76373;SDS011;65197;50.164;8.012;2023-05-23T09:02:38;13.93;;;10.35;;
76373;SDS011;65197;50.164;8.012;2023-05-23T09:05:05;13.88;;;10.13;;
76373;SDS011;65197;50.164;8.012;2023-05-23T09:07:31;14.68;;;10.57;;
76373;SDS011;65197;50.164;8.012;2023-05-23T09:09:56;14.02;;;10.05;;
76373;SDS011;65197;50.164;8.012;2023-05-23T09:12:22;13.70;;;9.95;;
76373;SDS011;65197;50.164;8.012;2023-05-23T09:14:47;14.68;;;11.18;;
76373;SDS011;65197;50.164;8.012;2023-05-23T09:17:19;14.02;;;10.32;;
76373;SDS011;65197;50.164;8.012;2023-05-23T09:19:45;16.88;;;11.52;;
76373;SDS011;65197;50.164;8.012;2023-05-23T09:22:13;15.65;;;10.57;;
76373;SDS011;65197;50.164;8.012;2023-05-23T09:24:39;13.73;;;10.25;;
76373;SDS011;65197;50.164;8.012;2023-05-23T09:27:05;15.05;;;10.02;;
76373;SDS011;65197;50.164;8.012;2023-05-23T09:29:31;17.85;;;11.25;;
76373;SDS011;65197;50.164;8.012;2023-05-23T09:32:09;12.95;;;10.25;;
76373;SDS011;65197;50.164;8.012;2023-05-23T09:34:38;15.27;;;11.00;;
76373;SDS011;65197;50.164;8.012;2023-05-23T09:37:04;15.18;;;10.60;;
76373;SDS011;65197;50.164;8.012;2023-05-23T09:39:30;14.95;;;9.95;;
76373;SDS011;65197;50.164;8.012;2023-05-23T09:41:57;13.52;;;10.05;;
76373;SDS011;65197;50.164;8.012;2023-05-23T09:44:23;12.73;;;9.93;;
76373;SDS011;65197;50.164;8.012;2023-05-23T09:46:49;13.27;;;9.80;;
76373;SDS011;65197;50.164;8.012;2023-05-23T09:49:18;15.48;;;11.00;;
76373;SDS011;65197;50.164;8.012;2023-05-23T09:51:43;15.38;;;10.85;;
76373;SDS011;65197;50.164;8.012;2023-05-23T09:54:21;18.23;;;11.35;;
76373;SDS011;65197;50.164;8.012;2023-05-23T09:56:46;16.25;;;11.52;;
76373;SDS011;65197;50.164;8.012;2023-05-23T09:59:14;18.92;;;12.00;;
76373;SDS011;65197;50.164;8.012;2023-05-23T10:01:44;12.98;;;9.73;;
76373;SDS011;65197;50.164;8.012;2023-05-23T10:04:11;15.15;;;11.05;;
76373;SDS011;65197;50.164;8.012;2023-05-23T10:06:43;16.95;;;11.15;;
76373;SDS011;65197;50.164;8.012;2023-05-23T10:09:18;17.65;;;11.90;;
76373;SDS011;65197;50.164;8.012;2023-05-23T10:12:09;21.27;;;13.45;;
76373;SDS011;65197;50.164;8.012;2023-05-23T10:14:37;17.50;;;12.35;;
76373;SDS011;65197;50.164;8.012;2023-05-23T10:19:47;18.77;;;12.40;;
76373;SDS011;65197;50.164;8.012;2023-05-23T10:22:27;20.45;;;12.90;;
76373;SDS011;65197;50.164;8.012;2023-05-23T10:24:52;19.33;;;13.55;;
76373;SDS011;65197;50.164;8.012;2023-05-23T10:27:18;20.35;;;13.65;;
76373;SDS011;65197;50.164;8.012;2023-05-23T10:29:44;20.40;;;13.25;;
76373;SDS011;65197;50.164;8.012;2023-05-23T10:32:09;17.75;;;12.95;;
76373;SDS011;65197;50.164;8.012;2023-05-23T10:34:39;18.65;;;12.95;;
76373;SDS011;65197;50.164;8.012;2023-05-23T10:37:05;19.50;;;13.68;;
76373;SDS011;65197;50.164;8.012;2023-05-23T10:39:34;19.23;;;13.27;;
76373;SDS011;65197;50.164;8.012;2023-05-23T10:45:19;18.38;;;13.48;;
76373;SDS011;65197;50.164;8.012;2023-05-23T10:47:46;17.92;;;13.23;;
76373;SDS011;65197;50.164;8.012;2023-05-23T10:50:13;20.27;;;14.93;;
76373;SDS011;65197;50.164;8.012;2023-05-23T10:52:41;18.02;;;13.05;;
76373;SDS011;65197;50.164;8.012;2023-05-23T10:55:13;17.15;;;11.32;;
76373;SDS011;65197;50.164;8.012;2023-05-23T10:57:41;19.52;;;12.55;;
76373;SDS011;65197;50.164;8.012;2023-05-23T11:00:12;15.63;;;11.75;;
76373;SDS011;65197;50.164;8.012;2023-05-23T11:02:40;16.50;;;12.93;;
76373;SDS011;65197;50.164;8.012;2023-05-23T11:05:17;25.08;;;14.32;;
76373;SDS011;65197;50.164;8.012;2023-05-23T11:07:45;20.25;;;14.95;;
76373;SDS011;65197;50.164;8.012;2023-05-23T11:10:11;22.25;;;15.60;;
76373;SDS011;65197;50.164;8.012;2023-05-23T11:12:41;20.02;;;14.05;;
76373;SDS011;65197;50.164;8.012;2023-05-23T11:17:54;16.98;;;10.45;;
76373;SDS011;65197;50.164;8.012;2023-05-23T11:20:24;16.63;;;10.40;;
76373;SDS011;65197;50.164;8.012;2023-05-23T11:22:52;12.20;;;8.93;;
76373;SDS011;65197;50.164;8.012;2023-05-23T11:25:19;11.02;;;8.43;;
76373;SDS011;65197;50.164;8.012;2023-05-23T11:27:45;10.00;;;7.38;;
76373;SDS011;65197;50.164;8.012;2023-05-23T11:30:16;10.93;;;7.60;;
76373;SDS011;65197;50.164;8.012;2023-05-23T11:32:52;12.82;;;9.57;;
76373;SDS011;65197;50.164;8.012;2023-05-23T11:35:21;14.13;;;11.00;;
76373;SDS011;65197;50.164;8.012;2023-05-23T11:37:47;15.63;;;12.30;;
76373;SDS011;65197;50.164;8.012;2023-05-23T11:42:55;15.95;;;11.88;;
76373;SDS011;65197;50.164;8.012;2023-05-23T11:45:21;14.35;;;10.85;;
76373;SDS011;65197;50.164;8.012;2023-05-23T11:47:47;18.05;;;11.70;;
76373;SDS011;65197;50.164;8.012;2023-05-23T11:50:13;14.35;;;11.07;;
76373;SDS011;65197;50.164;8.012;2023-05-23T11:52:39;15.25;;;11.30;;
76373;SDS011;65197;50.164;8.012;2023-05-23T11:55:08;19.92;;;9.93;;
76373;SDS011;65197;50.164;8.012;2023-05-23T11:57:37;14.48;;;10.27;;
76373;SDS011;65197;50.164;8.012;2023-05-23T12:00:06;13.18;;;9.80;;
76373;SDS011;65197;50.164;8.012;2023-05-23T12:02:42;12.63;;;9.73;;
76373;SDS011;65197;50.164;8.012;2023-05-23T12:05:12;13.68;;;10.18;;
76373;SDS011;65197;50.164;8.012;2023-05-23T12:07:41;16.60;;;9.50;;
76373;SDS011;65197;50.164;8.012;2023-05-23T12:10:11;12.90;;;9.75;;
76373;SDS011;65197;50.164;8.012;2023-05-23T12:12:39;14.18;;;8.70;;
76373;SDS011;65197;50.164;8.012;2023-05-23T12:15:07;13.60;;;9.43;;
76373;SDS011;65197;50.164;8.012;2023-05-23T12:17:45;12.77;;;9.23;;
76373;SDS011;65197;50.164;8.012;2023-05-23T12:20:11;14.00;;;8.95;;
76373;SDS011;65197;50.164;8.012;2023-05-23T12:22:36;12.13;;;8.18;;
76373;SDS011;65197;50.164;8.012;2023-05-23T12:25:02;15.10;;;8.73;;
76373;SDS011;65197;50.164;8.012;2023-05-23T12:27:33;13.70;;;9.30;;
76373;SDS011;65197;50.164;8.012;2023-05-23T12:30:06;15.85;;;8.88;;
76373;SDS011;65197;50.164;8.012;2023-05-23T12:32:34;10.88;;;8.52;;
76373;SDS011;65197;50.164;8.012;2023-05-23T12:35:03;11.02;;;8.50;;
76373;SDS011;65197;50.164;8.012;2023-05-23T12:37:29;10.95;;;8.20;;
76373;SDS011;65197;50.164;8.012;2023-05-23T12:39:54;10.55;;;7.97;;
76373;SDS011;65197;50.164;8.012;2023-05-23T12:42:20;12.32;;;8.15;;
76373;SDS011;65197;50.164;8.012;2023-05-23T12:44:48;14.40;;;8.38;;
76373;SDS011;65197;50.164;8.012;2023-05-23T12:47:15;12.18;;;7.72;;
76373;SDS011;65197;50.164;8.012;2023-05-23T12:49:41;9.80;;;7.72;;
76373;SDS011;65197;50.164;8.012;2023-05-23T12:52:08;10.75;;;7.40;;
76373;SDS011;65197;50.164;8.012;2023-05-23T12:54:34;12.68;;;8.05;;
76373;SDS011;65197;50.164;8.012;2023-05-23T12:56:59;9.60;;;7.20;;
76373;SDS011;65197;50.164;8.012;2023-05-23T12:59:24;10.10;;;7.50;;
76373;SDS011;65197;50.164;8.012;2023-05-23T13:01:50;12.88;;;8.48;;
76373;SDS011;65197;50.164;8.012;2023-05-23T13:04:15;14.25;;;9.73;;
76373;SDS011;65197;50.164;8.012;2023-05-23T13:06:41;14.40;;;9.70;;
76373;SDS011;65197;50.164;8.012;2023-05-23T13:09:06;16.58;;;10.05;;
76373;SDS011;65197;50.164;8.012;2023-05-23T13:11:32;13.73;;;10.80;;
76373;SDS011;65197;50.164;8.012;2023-05-23T13:13:57;15.52;;;10.63;;
76373;SDS011;65197;50.164;8.012;2023-05-23T13:16:22;15.73;;;11.85;;
76373;SDS011;65197;50.164;8.012;2023-05-23T13:18:48;19.98;;;12.75;;
76373;SDS011;65197;50.164;8.012;2023-05-23T13:21:13;16.10;;;11.90;;
76373;SDS011;65197;50.164;8.012;2023-05-23T13:23:39;18.02;;;12.30;;
76373;SDS011;65197;50.164;8.012;2023-05-23T13:26:04;19.20;;;13.90;;
76373;SDS011;65197;50.164;8.012;2023-05-23T13:28:31;20.33;;;14.65;;
76373;SDS011;65197;50.164;8.012;2023-05-23T13:30:56;20.35;;;14.07;;
76373;SDS011;65197;50.164;8.012;2023-05-23T13:33:22;19.10;;;13.43;;
76373;SDS011;65197;50.164;8.012;2023-05-23T13:35:48;20.52;;;14.25;;
76373;SDS011;65197;50.164;8.012;2023-05-23T13:38:14;19.88;;;14.27;;
76373;SDS011;65197;50.164;8.012;2023-05-23T13:40:41;27.45;;;14.20;;
76373;SDS011;65197;50.164;8.012;2023-05-23T13:43:07;19.33;;;13.68;;
76373;SDS011;65197;50.164;8.012;2023-05-23T13:45:32;19.55;;;13.23;;
76373;SDS011;65197;50.164;8.012;2023-05-23T13:47:58;19.58;;;13.45;;
76373;SDS011;65197;50.164;8.012;2023-05-23T13:50:23;22.98;;;15.35;;
76373;SDS011;65197;50.164;8.012;2023-05-23T13:56:11;24.63;;;15.27;;
76373;SDS011;65197;50.164;8.012;2023-05-23T13:58:36;29.88;;;16.35;;
76373;SDS011;65197;50.164;8.012;2023-05-23T14:01:01;29.45;;;18.60;;
76373;SDS011;65197;50.164;8.012;2023-05-23T14:03:27;29.38;;;16.92;;
76373;SDS011;65197;50.164;8.012;2023-05-23T14:05:52;28.10;;;16.33;;
76373;SDS011;65197;50.164;8.012;2023-05-23T14:08:17;26.92;;;15.85;;
76373;SDS011;65197;50.164;8.012;2023-05-23T14:10:43;21.52;;;14.65;;
76373;SDS011;65197;50.164;8.012;2023-05-23T14:13:08;22.38;;;14.82;;
76373;SDS011;65197;50.164;8.012;2023-05-23T14:15:34;18.60;;;12.20;;
76373;SDS011;65197;50.164;8.012;2023-05-23T14:18:02;17.77;;;11.63;;
76373;SDS011;65197;50.164;8.012;2023-05-23T14:20:27;18.58;;;11.48;;
76373;SDS011;65197;50.164;8.012;2023-05-23T14:22:53;14.85;;;10.27;;
76373;SDS011;65197;50.164;8.012;2023-05-23T14:25:19;18.83;;;11.70;;
76373;SDS011;65197;50.164;8.012;2023-05-23T14:27:44;14.93;;;9.77;;
76373;SDS011;65197;50.164;8.012;2023-05-23T14:30:10;13.85;;;9.40;;
76373;SDS011;65197;50.164;8.012;2023-05-23T14:32:35;13.35;;;8.55;;
76373;SDS011;65197;50.164;8.012;2023-05-23T14:35:04;14.00;;;9.50;;
76373;SDS011;65197;50.164;8.012;2023-05-23T14:37:31;15.93;;;9.40;;
76373;SDS011;65197;50.164;8.012;2023-05-23T14:39:56;13.32;;;9.23;;
76373;SDS011;65197;50.164;8.012;2023-05-23T14:42:21;14.25;;;9.05;;
76373;SDS011;65197;50.164;8.012;2023-05-23T14:44:47;13.63;;;9.20;;
76373;SDS011;65197;50.164;8.012;2023-05-23T14:47:12;16.42;;;9.20;;
76373;SDS011;65197;50.164;8.012;2023-05-23T14:49:37;13.27;;;9.48;;